Time;durP1;ratioP1;P1;durP2;ratioP2;P2;SDS_P1;SDS_P2;PMS_P1;PMS_P2;Temp;Humidity;BMP_temperature;BMP_pressure;BME280_temperature;BME280_humidity;BME280_pressure;Samples;Min_cycle;Max_cycle;Signal;HPM_P1;HPM_P2
2021/12/17 00:00:20;;;;;;;11.73;4.75;;;8.10;96.70;;;;;;4888927;29;20044;-69
2021/12/17 00:08:18;;;;;;;10.38;5.03;;;8.10;96.80;;;;;;4895644;29;20052;-69
2021/12/17 00:10:45;;;;;;;9.75;5.15;;;8.10;96.80;;;;;;4874686;29;20079;-69
2021/12/17 00:13:11;;;;;;;9.45;4.95;;;8.10;96.70;;;;;;4895277;29;20052;-69
2021/12/17 00:15:38;;;;;;;11.98;6.10;;;8.10;96.80;;;;;;4892569;29;20086;-69
2021/12/17 00:18:18;;;;;;;12.27;5.82;;;8.00;96.80;;;;;;4895224;29;20048;-69
2021/12/17 00:40:20;;;;;;;14.88;7.38;;;8.10;96.80;;;;;;4878769;29;20123;-69
2021/12/17 00:48:24;;;;;;;14.82;5.22;;;8.10;96.90;;;;;;4883496;29;20052;-69
2021/12/17 00:51:27;;;;;;;11.25;5.53;;;8.00;96.90;;;;;;4894347;29;20040;-69
2021/12/17 00:53:42;;;;;;;14.55;5.88;;;8.10;96.90;;;;;;4891920;29;20553;-69
2021/12/17 00:56:09;;;;;;;10.20;5.28;;;8.10;96.90;;;;;;4893886;29;20083;-69
2021/12/17 00:58:35;;;;;;;11.25;5.30;;;8.10;96.90;;;;;;4893470;29;20040;-69
2021/12/17 01:01:01;;;;;;;9.18;5.60;;;8.10;96.90;;;;;;4891839;29;20086;-69
2021/12/17 01:03:27;;;;;;;10.93;5.43;;;8.10;96.90;;;;;;4883927;29;20136;-69
2021/12/17 01:05:53;;;;;;;12.43;5.15;;;8.00;96.80;;;;;;4873989;29;20044;-69
2021/12/17 01:08:19;;;;;;;15.95;5.40;;;8.10;96.90;;;;;;4873579;29;20056;-69
2021/12/17 01:10:50;;;;;;;13.05;4.22;;;8.10;96.90;;;;;;4873669;29;20476;-69
2021/12/17 01:13:17;;;;;;;8.38;3.78;;;8.10;97.30;;;;;;4889710;29;20056;-69
2021/12/17 01:15:44;;;;;;;4.70;3.40;;;8.10;96.90;;;;;;4873517;29;20403;-70
2021/12/17 01:18:15;;;;;;;9.20;4.18;;;8.00;96.80;;;;;;4874662;29;20155;-69
2021/12/17 01:36:39;;;;;;;15.98;9.30;;;7.90;96.90;;;;;;4873225;29;20052;-69
2021/12/17 01:42:04;;;;;;;10.50;7.57;;;8.00;97.00;;;;;;4859730;29;20523;-69
2021/12/17 01:44:30;;;;;;;7.18;4.22;;;8.00;97.00;;;;;;4875140;29;20045;-69
2021/12/17 01:46:57;;;;;;;4.82;3.05;;;8.00;97.40;;;;;;4874943;29;20052;-69
2021/12/17 01:55:46;;;;;;;8.48;2.72;;;8.00;97.00;;;;;;4873730;29;20127;-69
2021/12/17 02:00:41;;;;;;;3.28;2.67;;;8.00;97.00;;;;;;4864304;29;20053;-69
2021/12/17 02:03:09;;;;;;;2.88;2.50;;;8.00;97.00;;;;;;4880117;29;20522;-69
2021/12/17 02:05:35;;;;;;;3.58;2.30;;;8.00;97.00;;;;;;4877876;29;20059;-69
2021/12/17 02:08:02;;;;;;;4.40;2.95;;;8.00;97.00;;;;;;4892207;29;20620;-69
2021/12/17 02:11:49;;;;;;;8.93;3.63;;;8.00;97.00;;;;;;4877453;29;20060;-69
2021/12/17 02:32:30;;;;;;;9.35;3.92;;;8.00;97.20;;;;;;4853586;29;20109;-69
2021/12/17 02:37:27;;;;;;;8.80;4.45;;;8.00;97.30;;;;;;4892555;29;20139;-69
2021/12/17 02:47:42;;;;;;;15.60;7.82;;;8.00;97.30;;;;;;4893888;29;20485;-69
2021/12/17 02:50:10;;;;;;;17.10;7.28;;;8.00;97.70;;;;;;4888472;29;20098;-69
2021/12/17 02:52:39;;;;;;;15.70;6.50;;;8.00;97.30;;;;;;4893659;29;20055;-69
2021/12/17 02:55:07;;;;;;;14.20;6.70;;;8.10;97.30;;;;;;4875912;29;20109;-69
2021/12/17 02:57:34;;;;;;;9.38;5.63;;;8.10;97.40;;;;;;4893808;29;20103;-69
2021/12/17 03:00:04;;;;;;;13.85;6.53;;;8.10;97.30;;;;;;4892005;29;20050;-69
2021/12/17 03:02:32;;;;;;;10.63;6.13;;;8.10;97.30;;;;;;4888162;29;20048;-69
2021/12/17 03:04:58;;;;;;;19.60;8.45;;;8.10;97.40;;;;;;4893018;29;20056;-69
2021/12/17 03:07:23;;;;;;;10.25;6.68;;;8.00;97.40;;;;;;4892185;29;20100;-69
2021/12/17 03:10:03;;;;;;;14.38;8.15;;;8.10;97.40;;;;;;4877848;29;20403;-69
2021/12/17 03:12:42;;;;;;;15.13;8.40;;;8.10;97.40;;;;;;4864932;29;20053;-69
2021/12/17 03:15:32;;;;;;;11.10;7.60;;;8.10;97.30;;;;;;4892481;29;20155;-69
2021/12/17 03:23:42;;;;;;;11.45;6.68;;;8.10;97.30;;;;;;4884222;29;20048;-69
2021/12/17 03:26:12;;;;;;;17.02;7.50;;;8.10;97.30;;;;;;4880140;29;20049;-69
2021/12/17 03:28:39;;;;;;;;;;;8.10;97.30;;;;;;4880312;29;20055;-69
2021/12/17 03:31:06;;;;;;;15.15;7.22;;;8.10;97.30;;;;;;4896351;29;19931;-69
2021/12/17 03:33:32;;;;;;;18.70;6.90;;;8.10;97.30;;;;;;4894533;29;20449;-69
2021/12/17 03:35:58;;;;;;;17.67;7.30;;;8.10;97.30;;;;;;4894692;29;20060;-69
2021/12/17 03:38:25;;;;;;;20.95;9.38;;;8.10;97.30;;;;;;4895047;29;20139;-69
2021/12/17 03:40:59;;;;;;;14.95;7.38;;;8.10;97.30;;;;;;4896068;29;20108;-69
2021/12/17 03:43:30;;;;;;;16.77;8.57;;;8.10;97.30;;;;;;4891431;29;20127;-69
2021/12/17 03:45:57;;;;;;;14.52;8.90;;;8.10;97.30;;;;;;4911869;29;20037;-69
2021/12/17 03:48:23;;;;;;;18.88;10.13;;;8.10;97.30;;;;;;4896178;29;20107;-69
2021/12/17 03:50:49;;;;;;;20.83;10.93;;;8.10;97.30;;;;;;4893959;29;20130;-69
2021/12/17 03:53:15;;;;;;;20.48;10.98;;;8.10;97.30;;;;;;4895600;29;20180;-69
2021/12/17 03:55:41;;;;;;;19.67;10.40;;;8.10;97.30;;;;;;4894787;29;20131;-69
2021/12/17 03:58:07;;;;;;;16.90;9.90;;;8.20;97.30;;;;;;4895495;29;20068;-69
2021/12/17 04:00:33;;;;;;;13.18;9.02;;;8.20;97.30;;;;;;4880177;29;20044;-69
2021/12/17 04:03:00;;;;;;;11.25;5.38;;;8.10;97.30;;;;;;4893441;29;20088;-69
2021/12/17 04:05:25;;;;;;;7.22;5.20;;;8.10;97.30;;;;;;4895813;29;20574;-69
2021/12/17 04:07:51;;;;;;;8.57;4.88;;;8.10;97.30;;;;;;4894517;29;20052;-69
2021/12/17 04:10:18;;;;;;;9.07;4.88;;;8.10;97.30;;;;;;4879886;29;20615;-69
2021/12/17 04:12:59;;;;;;;7.88;4.32;;;8.10;97.30;;;;;;4909561;29;20537;-69
2021/12/17 04:15:34;;;;;;;7.85;4.65;;;8.10;97.20;;;;;;4895700;29;20052;-69
2021/12/17 04:18:00;;;;;;;7.88;4.63;;;8.10;97.20;;;;;;4895321;29;20044;-69
2021/12/17 04:20:27;;;;;;;6.07;4.28;;;8.10;97.20;;;;;;4894398;29;20055;-69
2021/12/17 04:22:52;;;;;;;8.02;5.35;;;8.10;97.20;;;;;;4894945;29;20040;-69
2021/12/17 04:25:18;;;;;;;5.78;4.28;;;8.10;97.20;;;;;;4892573;29;20096;-69
2021/12/17 04:27:44;;;;;;;8.57;6.07;;;8.10;97.10;;;;;;4895309;29;20171;-70
2021/12/17 04:30:10;;;;;;;6.25;4.22;;;8.10;97.10;;;;;;4876778;29;20064;-69
2021/12/17 04:32:36;;;;;;;8.45;5.35;;;8.00;97.10;;;;;;4891165;29;20111;-69
2021/12/17 04:35:03;;;;;;;14.63;5.22;;;8.00;97.00;;;;;;4885063;29;20503;-69
2021/12/17 04:37:29;;;;;;;11.70;6.13;;;8.00;97.00;;;;;;4911544;29;20048;-69
2021/12/17 04:39:54;;;;;;;15.63;9.95;;;8.00;97.00;;;;;;4895470;29;20055;-69
2021/12/17 04:42:30;;;;;;;20.00;13.20;;;8.00;97.10;;;;;;4893540;29;20059;-69
2021/12/17 04:44:58;;;;;;;18.60;12.48;;;8.00;97.10;;;;;;4911548;29;20123;-69
2021/12/17 04:58:23;;;;;;;12.48;8.73;;;8.10;97.10;;;;;;4910067;29;20052;-69
2021/12/17 05:00:48;;;;;;;18.60;11.15;;;8.10;97.10;;;;;;4878821;29;20052;-69
2021/12/17 05:03:14;;;;;;;13.85;8.90;;;8.10;97.10;;;;;;4893389;29;20475;-69
2021/12/17 05:05:40;;;;;;;12.88;8.25;;;8.20;97.10;;;;;;4894569;29;20044;-69
2021/12/17 05:08:12;;;;;;;14.65;10.32;;;8.10;97.10;;;;;;4892760;29;20135;-69
2021/12/17 05:18:59;;;;;;;18.17;8.45;;;8.30;97.10;;;;;;4873193;29;20059;-69
2021/12/17 05:21:25;;;;;;;12.02;7.72;;;8.30;97.10;;;;;;4909727;29;20040;-69
2021/12/17 05:23:52;;;;;;;17.15;11.85;;;8.30;97.00;;;;;;4911636;29;20084;-70
2021/12/17 05:26:19;;;;;;;19.08;14.68;;;8.30;97.00;;;;;;4880506;29;20052;-69
2021/12/17 05:28:46;;;;;;;15.35;11.75;;;8.30;97.00;;;;;;4911404;29;20503;-69
2021/12/17 05:31:14;;;;;;;16.83;11.25;;;8.30;97.00;;;;;;4909528;29;20048;-70
2021/12/17 05:33:40;;;;;;;14.30;9.55;;;8.20;97.00;;;;;;4909794;29;20056;-69
2021/12/17 05:36:06;;;;;;;11.48;7.88;;;8.30;97.00;;;;;;4893881;29;20087;-69
2021/12/17 05:38:32;;;;;;;15.90;8.23;;;8.30;96.90;;;;;;4910002;29;20044;-69
2021/12/17 05:40:58;;;;;;;12.32;8.13;;;8.30;96.90;;;;;;4911456;29;20547;-69
2021/12/17 05:43:24;;;;;;;11.02;7.93;;;8.20;96.90;;;;;;4885601;29;20044;-69
2021/12/17 05:48:24;;;;;;;14.18;8.05;;;8.20;96.90;;;;;;4892716;29;20044;-69
2021/12/17 05:50:56;;;;;;;11.48;7.72;;;8.20;96.90;;;;;;4893124;29;20111;-69
2021/12/17 05:53:23;;;;;;;11.55;7.43;;;8.20;96.90;;;;;;4890363;29;20040;-69
2021/12/17 05:55:48;;;;;;;14.77;8.63;;;8.20;96.90;;;;;;4909771;29;20134;-69
2021/12/17 05:58:15;;;;;;;12.98;7.45;;;8.20;96.90;;;;;;4893530;29;20155;-69
2021/12/17 06:00:43;;;;;;;12.20;7.22;;;8.20;96.90;;;;;;4892374;29;20051;-69
2021/12/17 06:03:09;;;;;;;19.80;8.00;;;8.20;96.90;;;;;;4892789;29;20154;-69
2021/12/17 06:05:35;;;;;;;18.23;6.93;;;8.20;96.90;;;;;;4909379;29;20520;-69
2021/12/17 06:08:01;;;;;;;18.88;7.13;;;8.20;96.90;;;;;;4893040;29;20127;-69
2021/12/17 06:10:27;;;;;;;11.73;5.68;;;8.30;96.90;;;;;;4910983;29;20044;-69
2021/12/17 06:12:53;;;;;;;13.57;6.25;;;8.30;96.90;;;;;;4876694;29;20521;-69
2021/12/17 06:15:21;;;;;;;11.23;5.97;;;8.20;96.80;;;;;;4909782;29;20550;-69
2021/12/17 06:17:47;;;;;;;14.73;7.10;;;8.40;96.80;;;;;;4907249;29;20139;-69
2021/12/17 06:20:15;;;;;;;11.30;6.72;;;8.40;96.80;;;;;;4884108;29;20051;-69
2021/12/17 06:22:42;;;;;;;12.45;6.13;;;8.40;96.70;;;;;;4889625;29;20495;-69
2021/12/17 06:25:10;;;;;;;13.65;6.68;;;8.30;96.70;;;;;;4892870;29;20048;-69
2021/12/17 06:27:35;;;;;;;15.07;7.22;;;8.40;96.60;;;;;;4893327;29;20052;-69
2021/12/17 06:30:04;;;;;;;20.45;7.20;;;8.40;96.60;;;;;;4892345;29;20051;-69
2021/12/17 06:32:31;;;;;;;13.75;6.70;;;8.40;96.60;;;;;;4893468;29;20080;-69
2021/12/17 06:34:57;;;;;;;24.58;7.05;;;8.40;96.50;;;;;;4876330;29;20574;-69
2021/12/17 06:37:22;;;;;;;17.48;7.20;;;8.30;96.50;;;;;;4893371;29;20160;-69
2021/12/17 06:39:49;;;;;;;15.20;6.97;;;8.40;96.50;;;;;;4890906;29;20054;-69
2021/12/17 06:42:15;;;;;;;26.85;9.07;;;8.30;96.50;;;;;;4892930;29;20056;-69
2021/12/17 06:44:45;;;;;;;19.65;8.20;;;8.30;96.50;;;;;;4892907;29;20069;-69
2021/12/17 07:06:00;;;;;;;25.42;9.35;;;8.30;96.60;;;;;;4892893;29;20172;-69
2021/12/17 07:10:57;;;;;;;23.08;9.13;;;8.30;96.60;;;;;;4897044;29;20574;-69
2021/12/17 07:24:26;;;;;;;33.50;9.60;;;8.20;96.70;;;;;;4896662;29;20048;-69
2021/12/17 07:35:23;;;;;;;35.20;12.23;;;8.30;96.90;;;;;;4895130;29;20312;-69
2021/12/17 07:40:10;;;;;;;43.65;14.80;;;8.30;97.00;;;;;;4881746;29;20574;-69
2021/12/17 07:42:37;;;;;;;46.05;14.00;;;8.40;97.00;;;;;;4895830;29;20108;-69
2021/12/17 07:45:04;;;;;;;41.53;13.80;;;8.30;97.00;;;;;;4894866;29;20055;-69
2021/12/17 07:47:30;;;;;;;34.50;13.48;;;8.40;97.00;;;;;;4894945;29;20426;-69
2021/12/17 07:49:56;;;;;;;42.25;14.40;;;8.30;97.00;;;;;;4890884;29;20052;-69
2021/12/17 07:52:22;;;;;;;35.28;12.93;;;8.30;97.00;;;;;;4894523;29;20055;-69
2021/12/17 07:54:48;;;;;;;48.47;15.00;;;8.30;96.90;;;;;;4895692;29;20067;-69
2021/12/17 07:57:14;;;;;;;46.60;14.43;;;8.30;96.90;;;;;;4878975;29;20507;-69
2021/12/17 07:59:40;;;;;;;43.60;14.90;;;8.30;97.00;;;;;;4888665;29;20047;-69
2021/12/17 08:02:07;;;;;;;42.05;14.30;;;8.30;97.00;;;;;;4892200;29;20511;-69
2021/12/17 08:04:33;;;;;;;36.25;13.00;;;8.30;97.00;;;;;;4893710;29;20051;-69
2021/12/17 08:06:59;;;;;;;45.13;15.52;;;8.30;97.00;;;;;;4893008;29;20194;-69
2021/12/17 08:09:28;;;;;;;45.50;15.85;;;8.30;97.00;;;;;;4876955;29;20449;-69
2021/12/17 08:11:57;;;;;;;36.88;14.25;;;8.40;97.00;;;;;;4876998;29;20036;-69
2021/12/17 08:14:25;;;;;;;46.03;14.97;;;8.30;97.00;;;;;;4892184;29;20055;-69
2021/12/17 08:29:56;;;;;;;21.23;9.27;;;8.40;96.90;;;;;;4890090;29;20436;-69
2021/12/17 08:32:22;;;;;;;20.38;8.60;;;8.40;96.90;;;;;;4861581;29;20101;-69
2021/12/17 08:34:48;;;;;;;15.27;7.40;;;8.50;96.80;;;;;;4891344;29;20455;-69
2021/12/17 08:37:14;;;;;;;9.63;5.47;;;8.50;96.50;;;;;;4895194;29;20135;-69
2021/12/17 08:39:40;;;;;;;13.27;5.63;;;8.60;96.00;;;;;;4876464;29;20135;-69
2021/12/17 08:42:08;;;;;;;15.15;6.78;;;8.70;95.40;;;;;;4894960;29;20100;-69
2021/12/17 08:44:33;;;;;;;15.88;6.78;;;8.70;95.20;;;;;;4892543;29;20040;-69
2021/12/17 08:46:59;;;;;;;15.80;6.85;;;8.70;95.10;;;;;;4895383;29;20096;-69
2021/12/17 08:49:25;;;;;;;17.80;6.78;;;8.70;95.00;;;;;;4892935;29;20976;-68
2021/12/17 08:51:51;;;;;;;9.95;5.13;;;8.70;95.00;;;;;;4894172;29;20040;-69
2021/12/17 08:54:17;;;;;;;12.80;5.85;;;8.70;95.00;;;;;;4894751;29;20059;-68
2021/12/17 08:56:47;;;;;;;11.57;5.15;;;8.70;95.00;;;;;;4892595;29;20052;-69
2021/12/17 08:59:14;;;;;;;18.38;6.85;;;8.80;95.00;;;;;;4891251;29;20110;-69
2021/12/17 09:01:41;;;;;;;10.90;6.00;;;8.70;94.70;;;;;;4892499;29;20040;-69
2021/12/17 09:04:07;;;;;;;12.65;5.50;;;8.80;94.70;;;;;;4911576;29;20136;-69
2021/12/17 09:06:33;;;;;;;14.63;5.93;;;8.80;94.90;;;;;;4892750;29;20048;-69
2021/12/17 09:08:59;;;;;;;13.60;5.95;;;8.80;95.00;;;;;;4894222;29;20100;-69
2021/12/17 09:11:27;;;;;;;13.60;5.90;;;8.80;94.90;;;;;;4893449;29;20482;-69
2021/12/17 09:13:56;;;;;;;14.02;5.88;;;8.80;95.00;;;;;;4910381;29;20063;-69
2021/12/17 09:16:22;;;;;;;16.23;5.78;;;8.80;95.20;;;;;;4894307;29;20497;-69
2021/12/17 09:18:50;;;;;;;16.48;6.10;;;8.80;95.40;;;;;;4893099;29;20036;-69
2021/12/17 09:21:16;;;;;;;17.77;6.50;;;8.70;95.50;;;;;;4911066;29;20040;-69
2021/12/17 09:23:42;;;;;;;15.93;6.30;;;8.70;95.60;;;;;;4892616;29;20095;-69
2021/12/17 09:26:10;;;;;;;15.73;5.57;;;8.70;95.80;;;;;;4893357;29;20052;-68
2021/12/17 09:28:36;;;;;;;18.55;5.82;;;8.70;95.80;;;;;;4893456;29;20052;-68
2021/12/17 09:31:02;;;;;;;14.23;5.60;;;8.70;95.80;;;;;;4893602;29;20040;-69
2021/12/17 09:33:27;;;;;;;15.90;6.55;;;8.70;95.90;;;;;;4893762;29;20554;-69
2021/12/17 09:35:53;;;;;;;18.90;6.15;;;8.60;95.90;;;;;;4877069;29;20040;-69
2021/12/17 09:38:19;;;;;;;23.20;5.60;;;8.60;96.10;;;;;;4890270;29;20131;-69
2021/12/17 09:40:46;;;;;;;18.33;5.30;;;8.60;96.20;;;;;;4889941;29;20115;-68
2021/12/17 09:43:14;;;;;;;23.98;6.50;;;8.50;96.30;;;;;;4865556;29;20083;-69
2021/12/17 09:45:40;;;;;;;21.13;5.47;;;8.50;96.30;;;;;;4894327;29;20047;-68
2021/12/17 09:48:06;;;;;;;12.57;4.50;;;8.50;96.40;;;;;;4892876;29;20048;-68
2021/12/17 09:50:32;;;;;;;18.38;4.90;;;8.50;96.50;;;;;;4912931;29;20477;-68
2021/12/17 09:52:57;;;;;;;22.33;5.63;;;8.50;96.50;;;;;;4892499;29;20143;-68
2021/12/17 09:55:23;;;;;;;16.80;5.53;;;8.50;96.40;;;;;;4893586;29;20407;-69
2021/12/17 09:57:49;;;;;;;20.23;4.70;;;8.50;96.40;;;;;;4891796;29;20056;-68
2021/12/17 10:00:19;;;;;;;24.45;4.55;;;8.50;96.40;;;;;;4893201;29;20044;-68
2021/12/17 10:02:46;;;;;;;11.75;4.10;;;8.40;96.50;;;;;;4909356;29;20048;-69
2021/12/17 10:05:15;;;;;;;18.50;4.85;;;8.40;96.40;;;;;;4866470;29;20056;-69
2021/12/17 10:07:43;;;;;;;19.70;4.53;;;8.50;96.50;;;;;;4910176;29;20052;-68
2021/12/17 10:10:09;;;;;;;20.08;3.92;;;8.40;96.60;;;;;;4908803;29;20467;-69
2021/12/17 10:12:38;;;;;;;12.50;3.72;;;8.40;96.60;;;;;;4885253;29;20086;-68
2021/12/17 10:15:11;;;;;;;8.73;2.90;;;8.40;96.60;;;;;;4891211;29;20513;-68
2021/12/17 10:17:49;;;;;;;13.35;3.33;;;8.40;96.60;;;;;;4893248;29;20048;-69
2021/12/17 10:20:15;;;;;;;12.07;3.92;;;8.40;96.70;;;;;;4892593;29;20583;-68
2021/12/17 10:22:45;;;;;;;8.77;2.88;;;8.50;96.60;;;;;;4892589;29;20403;-69
2021/12/17 10:25:12;;;;;;;17.37;2.80;;;8.40;96.60;;;;;;4893971;29;20048;-68
2021/12/17 10:27:40;;;;;;;8.35;2.90;;;8.40;96.50;;;;;;4893426;29;20150;-68
2021/12/17 10:30:18;;;;;;;4.38;2.35;;;8.50;96.60;;;;;;4897374;29;20047;-69
2021/12/17 10:32:47;;;;;;;4.90;1.90;;;8.60;96.60;;;;;;4895180;29;20388;-69
2021/12/17 10:35:18;;;;;;;3.50;1.88;;;8.50;97.00;;;;;;4897305;29;20052;-69
2021/12/17 10:38:08;;;;;;;6.07;1.92;;;8.60;96.70;;;;;;4896805;29;20040;-68
2021/12/17 10:43:36;;;;;;;6.38;1.75;;;8.70;96.60;;;;;;4892265;29;20338;-69
2021/12/17 10:46:10;;;;;;;7.32;1.70;;;8.70;96.50;;;;;;4896645;29;20366;-68
2021/12/17 10:51:29;;;;;;;4.25;1.63;;;8.80;96.60;;;;;;4897215;29;20115;-68
2021/12/17 10:53:59;;;;;;;5.68;1.30;;;8.80;96.50;;;;;;4895543;29;20044;-69
2021/12/17 10:56:29;;;;;;;7.20;1.45;;;8.80;96.50;;;;;;4897434;29;20058;-69
2021/12/17 10:59:04;;;;;;;5.25;1.42;;;8.90;96.50;;;;;;4895707;29;20131;-68
2021/12/17 11:01:33;;;;;;;4.43;1.33;;;8.90;96.50;;;;;;4895612;29;20036;-69
2021/12/17 11:04:08;;;;;;;3.90;1.17;;;8.80;96.40;;;;;;4896365;29;20060;-69
2021/12/17 11:07:03;;;;;;;3.55;1.30;;;8.80;96.40;;;;;;4911785;29;20517;-69
2021/12/17 11:09:49;;;;;;;6.38;1.70;;;8.80;96.50;;;;;;4895274;29;20084;-68
2021/12/17 11:12:29;;;;;;;5.85;1.67;;;8.90;96.50;;;;;;4896466;29;20376;-69
2021/12/17 11:15:13;;;;;;;3.83;1.13;;;8.80;96.50;;;;;;4911974;29;20462;-69
2021/12/17 11:17:41;;;;;;;4.57;1.52;;;8.70;96.40;;;;;;4880658;29;20059;-68
2021/12/17 11:20:26;;;;;;;8.65;1.45;;;8.70;96.50;;;;;;4895007;29;20468;-69
2021/12/17 11:22:54;;;;;;;2.83;1.38;;;8.60;96.50;;;;;;4895391;29;20127;-69
2021/12/17 11:25:21;;;;;;;3.75;1.60;;;8.50;96.50;;;;;;4881268;29;20447;-68
2021/12/17 11:27:47;;;;;;;5.88;1.15;;;8.50;96.60;;;;;;4894837;29;20094;-68
2021/12/17 11:30:20;;;;;;;6.18;1.38;;;8.50;96.70;;;;;;4896877;29;20040;-69
2021/12/17 11:32:48;;;;;;;3.90;1.20;;;8.50;96.70;;;;;;4894235;29;20115;-68
2021/12/17 11:35:16;;;;;;;3.17;1.20;;;8.50;96.80;;;;;;4881164;29;20235;-69
2021/12/17 11:37:45;;;;;;;5.78;1.48;;;8.60;96.90;;;;;;4878831;29;20056;-69
2021/12/17 11:40:31;;;;;;;4.22;1.35;;;8.70;97.00;;;;;;4880254;29;20058;-69
2021/12/17 11:43:28;;;;;;;3.10;1.13;;;8.70;97.00;;;;;;4912793;29;20163;-69
2021/12/17 11:46:21;;;;;;;2.03;1.25;;;8.80;97.00;;;;;;4911016;29;20511;-69
2021/12/17 11:49:07;;;;;;;3.85;1.30;;;8.80;97.00;;;;;;4893283;29;20055;-69
2021/12/17 11:51:34;;;;;;;6.30;1.65;;;8.80;97.00;;;;;;4896147;29;20403;-69
2021/12/17 11:54:15;;;;;;;1.63;1.42;;;8.80;97.00;;;;;;4892863;29;20720;-69
2021/12/17 11:56:41;;;;;;;2.55;1.70;;;8.90;97.00;;;;;;4895423;29;20056;-69
2021/12/17 11:59:31;;;;;;;5.10;1.63;;;8.90;97.00;;;;;;4894505;29;20044;-68
2021/12/17 12:02:15;;;;;;;4.10;1.40;;;8.90;96.90;;;;;;4894897;29;20068;-69
2021/12/17 12:04:46;;;;;;;1.58;1.30;;;9.00;96.90;;;;;;4879534;29;20063;-69
2021/12/17 12:07:18;;;;;;;6.22;1.45;;;9.00;96.80;;;;;;4894345;29;20049;-69
2021/12/17 12:10:12;;;;;;;1.60;1.50;;;9.00;96.80;;;;;;4895682;29;20095;-69
2021/12/17 12:12:38;;;;;;;1.40;1.30;;;9.00;96.70;;;;;;4895435;29;20554;-69
2021/12/17 12:15:30;;;;;;;3.80;1.95;;;9.10;96.60;;;;;;4894135;29;20048;-69
2021/12/17 12:18:08;;;;;;;3.33;1.30;;;9.10;96.60;;;;;;4912199;29;20083;-69
2021/12/17 12:20:47;;;;;;;2.50;1.30;;;9.10;96.50;;;;;;4894198;29;20136;-69
2021/12/17 12:23:33;;;;;;;1.75;1.40;;;9.10;96.40;;;;;;4883180;29;20056;-69
2021/12/17 12:26:08;;;;;;;4.57;1.70;;;9.10;96.00;;;;;;4860067;29;20064;-69
2021/12/17 12:28:46;;;;;;;1.98;1.60;;;9.10;95.80;;;;;;4893903;29;20084;-69
2021/12/17 12:31:37;;;;;;;3.75;1.45;;;9.10;95.90;;;;;;4895711;29;20056;-69
2021/12/17 12:34:13;;;;;;;4.18;1.55;;;9.10;95.90;;;;;;4904690;29;20474;-69
2021/12/17 12:36:53;;;;;;;1.83;1.00;;;9.10;95.80;;;;;;4909596;29;20054;-69
2021/12/17 12:39:49;;;;;;;4.40;1.50;;;9.10;95.80;;;;;;4892941;29;20411;-69
2021/12/17 12:42:22;;;;;;;3.60;1.30;;;9.10;95.80;;;;;;4910016;29;20398;-69
2021/12/17 12:44:48;;;;;;;4.60;1.40;;;9.10;95.80;;;;;;4893079;29;20055;-69
2021/12/17 12:47:31;;;;;;;2.97;1.70;;;9.10;95.70;;;;;;4894605;29;20052;-69
2021/12/17 12:50:03;;;;;;;4.97;2.10;;;9.10;95.80;;;;;;4892088;29;20550;-69
2021/12/17 12:52:29;;;;;;;7.15;1.90;;;9.20;95.80;;;;;;4910898;29;20297;-69
2021/12/17 12:55:33;;;;;;;2.92;1.83;;;9.20;95.80;;;;;;4892949;29;20528;-69
2021/12/17 12:57:59;;;;;;;3.13;2.45;;;9.20;95.80;;;;;;4883343;29;20055;-69
2021/12/17 13:00:27;;;;;;;6.50;2.38;;;9.20;95.80;;;;;;4895115;29;20051;-69
2021/12/17 13:02:57;;;;;;;3.55;3.00;;;9.20;95.70;;;;;;4910104;29;20044;-69
2021/12/17 13:05:24;;;;;;;7.18;3.10;;;9.20;95.70;;;;;;4870000;29;20099;-69
2021/12/17 13:07:53;;;;;;;4.70;3.13;;;9.30;95.70;;;;;;4892347;29;20159;-69
2021/12/17 13:10:19;;;;;;;5.07;2.63;;;9.30;95.70;;;;;;4894388;29;20059;-69
2021/12/17 13:13:22;;;;;;;5.43;2.60;;;9.30;95.70;;;;;;4893991;29;20048;-68
2021/12/17 13:16:18;;;;;;;5.30;2.33;;;9.40;95.50;;;;;;4892666;29;20135;-69
2021/12/17 13:21:33;;;;;;;7.05;2.60;;;9.40;95.30;;;;;;4892685;29;20093;-69
2021/12/17 13:24:13;;;;;;;4.70;2.58;;;9.40;95.70;;;;;;4893299;29;20048;-69
2021/12/17 13:26:55;;;;;;;3.05;2.42;;;9.40;95.20;;;;;;4892996;29;20048;-69
2021/12/17 13:29:33;;;;;;;4.00;2.20;;;9.50;95.20;;;;;;4892719;29;20131;-69
2021/12/17 13:32:09;;;;;;;8.77;3.50;;;9.50;95.20;;;;;;4878906;29;20525;-68
2021/12/17 13:34:47;;;;;;;3.97;3.55;;;9.50;95.20;;;;;;4893278;29;20047;-69
2021/12/17 13:37:21;;;;;;;5.60;2.80;;;9.50;95.10;;;;;;4892841;29;20464;-69
2021/12/17 13:39:55;;;;;;;15.27;3.78;;;9.50;95.20;;;;;;4893276;29;20080;-69
2021/12/17 13:42:26;;;;;;;6.70;3.65;;;9.50;95.10;;;;;;4892685;29;20044;-69
2021/12/17 13:45:01;;;;;;;6.07;4.03;;;9.50;95.10;;;;;;4894078;29;20194;-69
2021/12/17 13:47:42;;;;;;;6.13;4.47;;;9.40;95.20;;;;;;4910791;29;20076;-69
2021/12/17 13:50:17;;;;;;;6.45;4.25;;;9.40;95.30;;;;;;4909000;29;20076;-69
2021/12/17 13:53:16;;;;;;;6.18;4.05;;;9.40;95.30;;;;;;4894054;29;20075;-69
2021/12/17 13:55:46;;;;;;;9.38;5.20;;;9.40;95.30;;;;;;4851781;29;20064;-69
2021/12/17 13:58:16;;;;;;;11.43;4.28;;;9.40;95.40;;;;;;4878035;29;20040;-69
2021/12/17 14:00:46;;;;;;;12.15;4.20;;;9.30;95.50;;;;;;4894140;29;20058;-69
2021/12/17 14:03:26;;;;;;;12.73;4.22;;;9.30;95.60;;;;;;4887894;29;20144;-69
2021/12/17 14:06:11;;;;;;;20.38;4.80;;;9.30;95.70;;;;;;4911007;29;20084;-69
2021/12/17 14:08:41;;;;;;;13.90;4.82;;;9.20;95.80;;;;;;4893015;29;20067;-69
2021/12/17 14:11:27;;;;;;;11.77;4.38;;;9.20;95.90;;;;;;4892528;29;20048;-69
2021/12/17 14:13:53;;;;;;;11.77;4.80;;;9.20;95.90;;;;;;4893323;29;20056;-69
2021/12/17 14:16:33;;;;;;;11.57;4.28;;;9.20;96.00;;;;;;4857930;29;20044;-69
2021/12/17 14:19:03;;;;;;;12.13;4.55;;;9.10;96.10;;;;;;4884372;29;20061;-69
2021/12/17 14:21:30;;;;;;;20.23;4.63;;;9.10;96.10;;;;;;4886494;29;20052;-68
2021/12/17 14:23:57;;;;;;;7.85;3.70;;;9.00;96.10;;;;;;4877150;29;20052;-69
2021/12/17 14:26:28;;;;;;;8.90;4.03;;;9.00;96.10;;;;;;4891066;29;20052;-69
2021/12/17 14:28:54;;;;;;;10.60;4.38;;;8.90;96.20;;;;;;4891331;29;20099;-69
2021/12/17 14:31:24;;;;;;;6.97;3.95;;;8.90;96.30;;;;;;4877185;29;20036;-69
2021/12/17 14:33:52;;;;;;;12.32;3.35;;;8.90;96.30;;;;;;4892004;29;20052;-69
2021/12/17 14:36:36;;;;;;;12.05;3.90;;;8.80;96.30;;;;;;4893629;29;20091;-69
2021/12/17 14:39:18;;;;;;;9.38;3.78;;;8.80;96.30;;;;;;4909261;29;20631;-69
2021/12/17 14:41:51;;;;;;;7.47;3.35;;;8.70;96.20;;;;;;4891971;29;20123;-68
2021/12/17 14:47:19;;;;;;;15.23;4.70;;;8.60;96.30;;;;;;4889660;29;20167;-69
2021/12/17 15:01:11;;;;;;;14.05;3.85;;;8.60;96.50;;;;;;4890878;29;20082;-69
2021/12/17 15:03:41;;;;;;;12.48;4.25;;;8.50;96.50;;;;;;4891559;29;20060;-68
2021/12/17 15:06:11;;;;;;;16.95;4.82;;;8.50;96.50;;;;;;4893135;29;20052;-68
2021/12/17 15:08:37;;;;;;;30.27;5.22;;;8.50;96.60;;;;;;4876257;29;20142;-69
2021/12/17 15:11:09;;;;;;;14.40;4.78;;;8.40;96.50;;;;;;4876858;29;20044;-68
2021/12/17 15:13:35;;;;;;;18.80;4.53;;;8.40;96.50;;;;;;4893555;29;20091;-68
2021/12/17 15:16:02;;;;;;;21.20;4.68;;;8.40;96.60;;;;;;4894634;29;20055;-69
2021/12/17 15:18:28;;;;;;;17.20;5.55;;;8.40;97.10;;;;;;4897160;29;20452;-68
2021/12/17 15:20:58;;;;;;;19.42;6.03;;;8.30;96.70;;;;;;4894613;29;20074;-69
2021/12/17 15:23:26;;;;;;;22.42;5.60;;;8.30;96.80;;;;;;4896237;29;20059;-69
2021/12/17 15:25:52;;;;;;;19.05;5.82;;;8.30;96.80;;;;;;4895079;29;20519;-69
2021/12/17 15:28:22;;;;;;;22.75;5.78;;;8.30;96.80;;;;;;4895581;29;20373;-69
2021/12/17 15:30:51;;;;;;;16.20;6.32;;;8.20;96.80;;;;;;4895250;29;20056;-68
2021/12/17 15:33:18;;;;;;;33.47;6.70;;;8.10;96.80;;;;;;4895136;29;20459;-68
2021/12/17 15:35:45;;;;;;;17.70;7.22;;;8.10;96.80;;;;;;4880521;29;20048;-68
2021/12/17 15:38:11;;;;;;;16.13;6.80;;;8.10;96.80;;;;;;4894677;29;20056;-69
2021/12/17 15:40:40;;;;;;;16.75;6.03;;;8.00;96.70;;;;;;4877915;29;20048;-69
2021/12/17 15:43:06;;;;;;;22.63;5.82;;;8.00;96.80;;;;;;4891894;29;20048;-69
2021/12/17 15:45:34;;;;;;;18.52;5.68;;;8.00;97.00;;;;;;4892951;29;20328;-69
2021/12/17 15:47:59;;;;;;;17.45;5.70;;;8.00;97.00;;;;;;4909404;29;20593;-69
2021/12/17 15:50:25;;;;;;;22.00;6.97;;;8.00;97.10;;;;;;4877894;29;20135;-69
2021/12/17 15:52:52;;;;;;;15.98;4.88;;;8.00;97.10;;;;;;4877521;29;20111;-68
2021/12/17 15:55:25;;;;;;;19.58;4.88;;;8.00;97.10;;;;;;4876319;29;20419;-69
2021/12/17 15:57:57;;;;;;;23.33;5.85;;;8.00;97.10;;;;;;4893440;29;20056;-68
2021/12/17 16:00:31;;;;;;;13.45;5.03;;;8.00;97.20;;;;;;4889324;29;20044;-69
2021/12/17 16:02:57;;;;;;;16.40;6.18;;;8.10;97.20;;;;;;4890292;29;20048;-68
2021/12/17 16:05:24;;;;;;;21.17;6.55;;;8.00;97.20;;;;;;4890897;29;20074;-69
2021/12/17 16:07:56;;;;;;;20.30;5.55;;;8.00;97.20;;;;;;4874480;29;20064;-69
2021/12/17 16:21:08;;;;;;;13.32;5.82;;;8.00;97.30;;;;;;4891209;29;20481;-69
2021/12/17 16:23:36;;;;;;;17.33;7.53;;;7.90;97.30;;;;;;4893421;29;20343;-69
2021/12/17 16:26:02;;;;;;;11.05;5.13;;;7.90;97.30;;;;;;4891345;29;20044;-69
2021/12/17 16:28:29;;;;;;;14.77;5.60;;;7.90;97.30;;;;;;4862089;29;20051;-68
2021/12/17 16:31:11;;;;;;;9.82;4.35;;;7.90;97.30;;;;;;4890081;29;20049;-69